Disclaimer

Please do not use the information listed here in-flight or in-navigation, as they are not provided to us by the airports but are provided by volunteers, so they might be outdated.

Search


Regions


Airport information page

No radio frequency information is available.

Airport informations:
Latitude: 18° 02' 35.76" S
Longitude: 178° 33' 33.22" E
Elevation: 17 feet - 5 meters
Operating hours: Remarks
Operating agency: Civil government, landing fees and diplomatic clearance may be required
Timezone: UTC+12(+13DT)
Fuel: Jet A1, without icing nhibitor.

100/130 octane gasoline, leaded, MIL-L-5572F (GREEN)

Runway information:
10/28 - 6129 x 100 feet< - >1868 x 30 meters

Recent METARs:
NFNA 142000Z 34003KT 9999 SCT016 BKN045 25/24 Q1010
NFNA 142000Z 34003KT 9999 SCT016 BKN045 25/24 Q1010
NFNA 142100Z 33004KT 9999 BKN018 SCT045 28/25 Q1010

Airport on the map: